Terminal Aerodrome Forecast
Issued by NWS Memphis, TN

Home | Current Version | Previous Version | Text Only | Print | Product List | Glossary On
Versions: 1 2 3 4 5 6 7 8 9 10 11 12 13
583
FTUS44 KMEG 042341
TAFJBR
TAF
KJBR 042341Z 0500/0524 31003KT P6SM OVC020
     FM050200 31003KT 5SM BR SCT015
     FM050500 02003KT 2SM BR OVC004
      TEMPO 0508/0512 1/2SM FG VV002
     FM051400 06007KT 5SM BR OVC005
     FM051600 07007KT P6SM OVC010
     FM052200 07007KT 5SM -RA BR OVC010=

USA.gov is the U.S. government's official web portal to all federal, state and local government web resources and services.